Time;durP1;ratioP1;P1;durP2;ratioP2;P2;SDS_P1;SDS_P2;PMS_P1;PMS_P2;Temp;Humidity;BMP_temperature;BMP_pressure;BME280_temperature;BME280_humidity;BME280_pressure;Samples;Min_cycle;Max_cycle;Signal;HPM_P1;HPM_P2
2022/06/30 00:00:21;;;;;;;7.30;4.50;;;;;;;18.03;65.86;97245.59;110019;1250;69417;-77
2022/06/30 00:03:03;;;;;;;5.50;4.00;;;;;;;18.02;64.72;97246.96;109830;1250;59769;-75
2022/06/30 00:05:33;;;;;;;4.80;4.30;;;;;;;18.00;64.79;97243.02;109786;1250;59701;-69
2022/06/30 00:08:04;;;;;;;4.60;4.10;;;;;;;18.01;64.24;97235.75;110037;1250;71407;-69
2022/06/30 00:10:34;;;;;;;;;;;;;;;18.01;65.61;97237.99;109965;1250;68691;-69
2022/06/30 00:13:04;;;;;;;5.40;4.30;;;;;;;18.00;66.20;97240.78;109962;1250;69408;-74
2022/06/30 00:15:35;;;;;;;5.00;4.40;;;;;;;17.99;68.08;97236.35;110025;1250;59817;-68
2022/06/30 00:18:05;;;;;;;5.60;5.00;;;;;;;17.96;68.12;97239.16;109972;1250;59694;-73
2022/06/30 00:20:34;;;;;;;6.20;5.60;;;;;;;17.95;68.50;97235.38;109799;1251;71520;-67
2022/06/30 00:23:04;;;;;;;5.80;4.80;;;;;;;17.93;68.62;97234.02;110049;1249;66953;-71
2022/06/30 00:25:33;;;;;;;;;;;;;;;17.91;67.94;97230.84;110023;1250;68635;-69
2022/06/30 00:28:03;;;;;;;8.90;5.70;;;;;;;17.84;69.47;97225.92;110077;1250;59716;-71
2022/06/30 00:30:33;;;;;;;;;;;;;;;17.80;68.50;97223.66;110010;1250;59667;-69
2022/06/30 00:33:03;;;;;;;6.10;5.50;;;;;;;17.77;68.27;97222.59;109760;1250;70907;-74
2022/06/30 00:35:33;;;;;;;7.50;4.40;;;;;;;17.75;68.85;97225.25;109735;1251;68159;-68
2022/06/30 00:38:02;;;;;;;6.30;5.50;;;;;;;17.74;68.81;97223.57;110012;1250;68497;-68
2022/06/30 00:40:46;;;;;;;5.70;5.10;;;;;;;17.70;68.80;97225.08;110092;1249;59693;-66
2022/06/30 00:43:18;;;;;;;6.10;5.50;;;;;;;17.63;70.63;97223.30;109934;1250;59637;-72
2022/06/30 00:45:49;;;;;;;8.10;5.50;;;;;;;17.58;70.77;97221.20;109883;1250;71633;-73
2022/06/30 00:48:19;;;;;;;6.10;5.30;;;;;;;17.53;71.02;97215.27;109901;1250;68409;-64
2022/06/30 00:50:49;;;;;;;6.30;4.90;;;;;;;17.51;69.52;97212.39;110191;1248;68629;-64
2022/06/30 00:53:20;;;;;;;6.20;5.30;;;;;;;17.51;69.67;97209.77;109981;1250;59748;-67
2022/06/30 00:55:52;;;;;;;5.90;5.30;;;;;;;17.50;70.58;97213.80;110200;1247;59751;-72
2022/06/30 00:58:22;;;;;;;5.70;5.00;;;;;;;17.44;71.10;97211.59;110200;1247;70858;-72
2022/06/30 01:00:52;;;;;;;5.70;5.10;;;;;;;17.37;71.31;97211.11;110210;1247;68492;-70
2022/06/30 01:03:22;;;;;;;6.30;5.00;;;;;;;17.31;71.24;97209.87;109994;1247;69433;-66
2022/06/30 01:05:53;;;;;;;5.20;4.70;;;;;;;17.28;71.02;97212.88;110191;1249;60149;-68
2022/06/30 01:08:24;;;;;;;5.80;5.20;;;;;;;17.26;70.85;97211.00;110193;1247;59705;-68
2022/06/30 01:13:43;;;;;;;6.80;5.60;;;;;;;17.20;71.52;97215.09;110170;1247;68389;-69
2022/06/30 01:16:12;;;;;;;;;;;;;;;17.14;72.04;97211.20;110183;1247;69400;-69
2022/06/30 01:18:42;;;;;;;;;;;;;;;17.10;72.20;97208.28;110061;1250;59770;-74
2022/06/30 01:21:12;;;;;;;;;;;;;;;17.07;72.72;97207.34;109978;1248;59628;-73
2022/06/30 01:23:41;;;;;;;6.10;5.30;;;;;;;17.04;72.98;97209.53;110022;1247;71631;-70
2022/06/30 01:26:12;;;;;;;6.00;4.80;;;;;;;17.04;73.21;97210.98;110160;1248;67540;-76
2022/06/30 01:28:42;;;;;;;6.50;4.90;;;;;;;17.03;72.81;97209.98;109951;1250;69358;-66
2022/06/30 01:31:13;;;;;;;6.70;5.00;;;;;;;17.03;71.72;97211.92;110148;1247;59739;-73
2022/06/30 01:33:45;;;;;;;5.00;4.40;;;;;;;17.03;72.69;97219.89;110068;1250;59741;-70
2022/06/30 01:36:15;;;;;;;6.50;4.90;;;;;;;17.00;71.13;97219.12;110088;1247;71409;-69
2022/06/30 01:38:44;;;;;;;;;;;;;;;16.98;72.70;97218.77;110081;1250;68458;-69
2022/06/30 01:41:15;;;;;;;6.40;5.30;;;;;;;16.95;73.28;97216.77;110055;1248;68579;-67
2022/06/30 01:43:46;;;;;;;6.30;5.50;;;;;;;16.89;73.50;97218.69;110108;1247;59668;-67
2022/06/30 01:46:22;;;;;;;5.90;5.30;;;;;;;16.83;72.89;97217.00;110259;1246;59676;-64
2022/06/30 01:48:52;;;;;;;6.90;5.70;;;;;;;16.73;73.39;97222.66;110071;1250;70744;-67
2022/06/30 01:51:22;;;;;;;5.80;4.50;;;;;;;16.66;73.43;97221.50;110191;1247;67676;-67
2022/06/30 01:53:53;;;;;;;4.60;4.00;;;;;;;16.62;71.98;97222.04;110226;1247;69451;-70
2022/06/30 01:56:24;;;;;;;6.50;5.50;;;;;;;16.60;72.38;97220.36;110226;1247;59756;-65
2022/06/30 01:58:56;;;;;;;5.40;4.90;;;;;;;16.57;73.10;97221.54;110268;1247;59742;-69
2022/06/30 02:01:27;;;;;;;6.40;5.70;;;;;;;16.54;73.97;97221.94;110252;1247;71558;-67
2022/06/30 02:04:46;;;;;;;7.60;6.40;;;;;;;16.52;73.31;97221.14;110159;1248;67719;-67
2022/06/30 02:06:48;;;;;;;7.50;6.30;;;;;;;16.53;73.39;97219.20;110227;1247;69253;-66
2022/06/30 02:09:18;;;;;;;6.10;5.40;;;;;;;16.55;72.45;97223.11;110296;1247;59697;-66
2022/06/30 02:12:44;;;;;;;6.00;5.40;;;;;;;16.57;74.01;97224.38;110270;1247;59692;-71
2022/06/30 02:14:39;;;;;;;5.40;4.90;;;;;;;16.56;74.42;97228.81;110205;1247;70805;-74
2022/06/30 02:17:09;;;;;;;8.00;6.60;;;;;;;16.56;73.78;97234.42;110228;1247;67121;-71
2022/06/30 02:19:40;;;;;;;6.10;5.20;;;;;;;16.56;73.86;97233.90;110033;1248;70112;-74
2022/06/30 02:22:11;;;;;;;5.90;5.30;;;;;;;16.57;72.75;97230.48;110140;1249;59752;-71
2022/06/30 02:24:42;;;;;;;5.90;5.30;;;;;;;16.58;71.95;97229.45;110244;1247;59759;-67
2022/06/30 02:27:12;;;;;;;5.60;5.00;;;;;;;16.59;71.51;97228.73;110043;1247;70776;-68
2022/06/30 02:29:42;;;;;;;6.80;5.50;;;;;;;16.58;71.76;97228.11;109948;1249;68595;-69
2022/06/30 02:32:15;;;;;;;7.90;6.30;;;;;;;16.56;73.99;97230.54;110228;1247;69377;-68
2022/06/30 02:34:44;;;;;;;8.20;6.60;;;;;;;16.49;74.95;97231.57;110082;1247;59735;-70
2022/06/30 02:37:14;;;;;;;8.00;5.80;;;;;;;16.42;75.70;97233.36;109936;1248;59675;-66
2022/06/30 02:39:44;;;;;;;6.80;5.50;;;;;;;16.38;75.77;97232.76;110206;1247;70665;-68
2022/06/30 02:42:14;;;;;;;6.70;5.50;;;;;;;16.33;75.26;97231.27;110014;1247;68532;-70
2022/06/30 02:44:44;;;;;;;6.00;5.10;;;;;;;16.32;76.26;97233.02;109986;1249;68661;-68
2022/06/30 02:47:14;;;;;;;7.00;6.30;;;;;;;16.32;76.40;97238.06;110208;1247;59755;-71
2022/06/30 02:49:43;;;;;;;;;;;;;;;16.33;75.45;97237.14;110018;1247;59698;-68
2022/06/30 02:52:14;;;;;;;6.80;5.70;;;;;;;16.32;74.33;97236.70;110010;1248;70534;-66
2022/06/30 02:54:44;;;;;;;6.10;5.50;;;;;;;16.27;73.15;97235.73;109644;1251;67692;-72
2022/06/30 02:57:15;;;;;;;7.30;6.30;;;;;;;16.19;73.60;97236.83;109654;1249;68644;-70
2022/06/30 02:59:45;;;;;;;8.10;5.70;;;;;;;16.08;75.68;97235.66;110195;1247;59742;-69
2022/06/30 03:02:16;;;;;;;8.10;6.40;;;;;;;16.01;76.46;97232.48;110016;1250;59755;-65
2022/06/30 03:04:47;;;;;;;7.50;6.10;;;;;;;15.96;77.47;97233.66;110021;1248;70490;-71
2022/06/30 03:07:17;;;;;;;6.80;6.10;;;;;;;15.96;77.17;97235.30;110189;1247;67985;-65
2022/06/30 03:09:47;;;;;;;7.30;5.90;;;;;;;15.96;77.80;97233.86;110135;1248;69475;-66
2022/06/30 03:12:18;;;;;;;8.30;5.90;;;;;;;15.98;77.96;97231.05;110130;1248;59736;-72
2022/06/30 03:14:48;;;;;;;7.10;6.20;;;;;;;16.00;77.95;97230.80;110038;1247;59688;-66
2022/06/30 03:17:18;;;;;;;7.40;6.60;;;;;;;16.02;76.58;97234.30;110270;1247;71367;-66
2022/06/30 03:19:47;;;;;;;9.00;7.10;;;;;;;16.02;76.71;97236.55;109985;1249;68587;-67
2022/06/30 03:22:17;;;;;;;;;;;;;;;16.04;76.96;97237.83;110000;1249;67853;-68
2022/06/30 03:24:47;;;;;;;8.20;6.60;;;;;;;16.08;77.56;97238.98;110162;1247;59738;-72
2022/06/30 03:27:18;;;;;;;;;;;;;;;16.15;77.85;97241.46;110197;1247;59707;-71
2022/06/30 03:29:48;;;;;;;8.20;6.70;;;;;;;16.22;77.95;97245.67;110039;1247;70876;-73
2022/06/30 03:32:17;;;;;;;8.60;6.50;;;;;;;16.31;77.73;97247.44;109974;1249;68607;-68
2022/06/30 03:34:48;;;;;;;6.20;5.60;;;;;;;16.41;77.06;97249.63;110143;1247;69489;-71
2022/06/30 03:37:18;;;;;;;8.60;5.80;;;;;;;16.49;75.35;97249.58;110131;1247;59703;-65
2022/06/30 03:39:47;;;;;;;;;;;;;;;16.55;74.94;97245.57;110137;1248;59682;-71
2022/06/30 03:42:17;;;;;;;6.30;5.50;;;;;;;16.60;74.46;97249.52;109843;1250;71757;-66
2022/06/30 03:44:46;;;;;;;;;;;;;;;16.64;75.32;97252.16;110194;1249;67634;-67
2022/06/30 03:47:16;;;;;;;8.60;6.40;;;;;;;16.64;75.51;97250.48;109988;1247;68875;-68
2022/06/30 03:49:46;;;;;;;7.50;6.50;;;;;;;16.69;75.69;97253.00;110167;1247;59727;-65
2022/06/30 03:52:15;;;;;;;8.00;6.60;;;;;;;16.77;75.41;97254.71;110191;1247;59689;-66
2022/06/30 03:54:44;;;;;;;7.10;6.10;;;;;;;16.86;75.85;97257.88;109984;1247;70599;-68
2022/06/30 03:57:14;;;;;;;7.80;6.00;;;;;;;16.96;75.26;97254.53;110175;1247;68480;-72
2022/06/30 03:59:43;;;;;;;7.30;6.00;;;;;;;17.08;75.85;97255.73;110125;1250;67695;-67
2022/06/30 04:02:13;;;;;;;7.50;5.80;;;;;;;17.20;74.28;97253.63;109878;1250;59695;-65
2022/06/30 04:04:43;;;;;;;13.70;7.60;;;;;;;17.35;73.73;97256.76;110182;1247;59760;-67
2022/06/30 04:07:13;;;;;;;8.60;6.40;;;;;;;17.46;73.31;97258.81;109954;1250;71797;-67
2022/06/30 04:09:43;;;;;;;7.50;6.20;;;;;;;17.57;72.83;97255.69;110144;1247;68612;-66
2022/06/30 04:12:12;;;;;;;8.70;6.70;;;;;;;17.69;72.39;97253.23;110141;1247;69488;-66
2022/06/30 04:14:42;;;;;;;9.70;6.60;;;;;;;17.79;72.25;97252.86;110231;1247;59725;-73
2022/06/30 04:17:11;;;;;;;7.20;6.10;;;;;;;17.90;71.90;97254.75;110214;1247;59675;-69
2022/06/30 04:19:41;;;;;;;9.20;6.00;;;;;;;18.02;71.49;97257.17;110173;1247;71524;-71
2022/06/30 04:22:10;;;;;;;8.20;6.10;;;;;;;18.13;71.19;97252.45;110013;1247;67877;-67
2022/06/30 04:24:40;;;;;;;6.90;6.00;;;;;;;18.24;71.39;97252.49;109877;1248;68613;-70
2022/06/30 04:27:09;;;;;;;6.80;5.90;;;;;;;18.37;70.99;97254.33;110045;1247;59690;-74
2022/06/30 04:29:39;;;;;;;6.60;5.60;;;;;;;18.50;70.77;97257.55;110226;1247;59688;-68
2022/06/30 04:34:56;;;;;;;10.70;6.10;;;;;;;18.80;70.02;97258.92;110160;1247;68150;-71
2022/06/30 04:37:25;;;;;;;6.60;5.70;;;;;;;18.94;69.15;97258.61;110163;1247;69432;-71
2022/06/30 04:41:23;;;;;;;6.10;5.10;;;;;;;19.10;68.83;97259.61;110163;1247;59760;-67
2022/06/30 04:42:43;;;;;;;9.00;6.40;;;;;;;19.28;68.11;97261.16;110173;1247;59678;-68
2022/06/30 04:45:12;;;;;;;7.10;6.10;;;;;;;19.44;67.49;97260.16;110167;1247;70801;-67
2022/06/30 04:47:41;;;;;;;7.80;6.10;;;;;;;19.55;67.08;97260.36;109924;1250;67726;-64
2022/06/30 04:50:11;;;;;;;9.40;6.90;;;;;;;19.66;66.94;97263.55;110025;1247;68922;-67
2022/06/30 04:52:41;;;;;;;8.00;7.10;;;;;;;19.76;66.45;97262.45;110097;1247;59805;-72
2022/06/30 04:55:10;;;;;;;8.40;6.90;;;;;;;19.93;66.44;97260.17;110107;1247;59715;-74
2022/06/30 04:57:40;;;;;;;8.50;6.40;;;;;;;20.12;65.92;97262.55;110002;1250;71422;-70
2022/06/30 05:00:10;;;;;;;;;;;;;;;20.31;65.29;97262.71;110236;1247;67644;-67
2022/06/30 05:02:39;;;;;;;9.70;6.60;;;;;;;20.50;64.76;97265.52;110163;1247;69436;-69
2022/06/30 05:05:09;;;;;;;7.10;6.10;;;;;;;20.69;64.22;97265.79;110143;1247;60204;-72
2022/06/30 05:07:38;;;;;;;7.50;6.20;;;;;;;20.87;64.03;97270.38;110157;1247;59697;-65
2022/06/30 05:10:07;;;;;;;9.00;6.90;;;;;;;21.17;65.01;97274.11;110144;1247;70640;-73
2022/06/30 05:12:37;;;;;;;7.20;5.50;;;;;;;21.54;62.95;97275.58;109999;1248;67829;-67
2022/06/30 05:15:06;;;;;;;6.50;5.60;;;;;;;21.98;61.35;97271.10;110164;1247;69435;-65
2022/06/30 05:17:35;;;;;;;7.80;6.80;;;;;;;22.52;59.48;97273.52;110126;1247;59713;-66
2022/06/30 05:20:05;;;;;;;6.30;5.30;;;;;;;23.06;57.37;97272.29;110201;1247;59665;-71
2022/06/30 05:22:34;;;;;;;7.50;6.10;;;;;;;23.62;56.75;97271.38;110021;1247;69675;-66
2022/06/30 05:27:51;;;;;;;6.50;5.50;;;;;;;24.71;55.36;97271.81;109946;1249;68599;-65
2022/06/30 05:30:21;;;;;;;7.50;6.40;;;;;;;25.04;52.79;97273.39;109915;1247;59688;-71
2022/06/30 05:32:50;;;;;;;6.90;6.10;;;;;;;25.20;51.40;97270.88;110132;1247;59688;-67
2022/06/30 05:35:19;;;;;;;7.80;6.30;;;;;;;25.25;50.14;97268.65;110136;1247;70872;-73
2022/06/30 05:37:53;;;;;;;8.10;6.70;;;;;;;25.17;50.26;97271.62;110190;1247;69142;-72
2022/06/30 05:40:22;;;;;;;6.90;6.00;;;;;;;25.05;49.71;97273.11;110151;1247;68787;-67
2022/06/30 05:42:51;;;;;;;7.70;6.20;;;;;;;25.04;50.14;97270.35;110151;1247;59676;-74
2022/06/30 05:45:20;;;;;;;;;;;;;;;25.12;50.66;97270.45;110011;1248;59732;-69
2022/06/30 05:47:51;;;;;;;6.60;5.90;;;;;;;25.21;50.69;97276.63;110171;1247;71786;-70
2022/06/30 05:50:21;;;;;;;7.70;7.00;;;;;;;25.31;50.72;97276.19;110170;1247;68578;-74
2022/06/30 05:52:51;;;;;;;6.80;5.70;;;;;;;25.33;50.72;97277.14;109914;1250;69379;-68
2022/06/30 05:55:20;;;;;;;6.90;5.70;;;;;;;25.38;50.85;97279.72;110161;1247;59751;-72
2022/06/30 05:57:58;;;;;;;6.60;6.00;;;;;;;25.49;50.51;97282.00;110007;1247;59666;-66
2022/06/30 06:00:29;;;;;;;6.70;5.90;;;;;;;25.60;50.02;97286.87;109975;1247;70193;-66
2022/06/30 06:02:58;;;;;;;5.50;4.90;;;;;;;25.71;50.06;97285.52;110187;1247;68570;-68
2022/06/30 06:05:27;;;;;;;5.90;5.30;;;;;;;25.83;50.18;97279.30;110174;1247;68728;-67
2022/06/30 06:08:07;;;;;;;5.70;5.20;;;;;;;25.97;50.04;97278.77;109925;1249;59797;-65
2022/06/30 06:10:36;;;;;;;;;;;;;;;26.07;49.31;97272.54;110213;1247;59741;-66
2022/06/30 06:13:06;;;;;;;6.10;5.50;;;;;;;26.15;49.51;97274.96;109981;1249;70841;-67
2022/06/30 06:15:35;;;;;;;6.40;5.40;;;;;;;26.24;48.53;97276.40;109970;1250;68596;-66
2022/06/30 06:18:04;;;;;;;7.10;5.20;;;;;;;26.26;48.63;97274.36;110180;1247;69449;-67
2022/06/30 06:20:33;;;;;;;6.40;5.80;;;;;;;26.35;48.16;97276.30;109924;1247;59807;-74
2022/06/30 06:23:03;;;;;;;5.60;5.10;;;;;;;26.41;47.65;97278.46;110003;1247;59770;-76
2022/06/30 06:25:31;;;;;;;;;;;;;;;26.59;47.46;97281.38;110120;1249;70806;-70
2022/06/30 06:30:51;;;;;;;7.10;6.30;;;;;;;27.15;46.30;97280.45;109937;1248;69172;-69
2022/06/30 06:33:20;;;;;;;6.90;6.20;;;;;;;27.39;45.25;97281.10;109970;1247;59741;-73
2022/06/30 06:35:49;;;;;;;6.90;6.20;;;;;;;27.56;44.71;97283.61;109990;1250;59769;-72
2022/06/30 06:38:18;;;;;;;5.70;5.20;;;;;;;27.90;43.65;97286.36;109982;1247;71189;-73
2022/06/30 06:40:47;;;;;;;6.40;5.90;;;;;;;28.41;43.99;97288.06;109900;1247;68414;-74
2022/06/30 06:43:16;;;;;;;6.50;5.90;;;;;;;28.90;42.62;97284.40;110154;1247;69600;-72
2022/06/30 06:45:45;;;;;;;6.10;5.30;;;;;;;29.36;42.70;97290.59;110037;1247;59729;-69
2022/06/30 06:48:15;;;;;;;5.40;4.90;;;;;;;29.95;42.41;97291.77;110236;1247;59987;-70
2022/06/30 06:50:43;;;;;;;;;;;;;;;30.45;39.96;97290.79;109770;1248;70762;-73
2022/06/30 06:53:13;;;;;;;7.30;6.20;;;;;;;30.65;39.25;97288.30;109663;1248;68748;-72
2022/06/30 06:55:43;;;;;;;6.00;5.40;;;;;;;30.74;37.79;97290.74;110050;1248;69458;-74
2022/06/30 06:58:12;;;;;;;5.70;4.50;;;;;;;31.10;37.69;97284.66;110204;1247;59716;-70
2022/06/30 07:00:42;;;;;;;5.60;5.10;;;;;;;31.37;36.74;97282.98;110155;1248;59768;-73
2022/06/30 07:03:12;;;;;;;6.90;6.20;;;;;;;31.45;35.75;97281.13;109927;1248;71565;-71
2022/06/30 07:05:41;;;;;;;7.60;6.80;;;;;;;31.36;35.25;97274.83;110055;1249;67830;-71
2022/06/30 07:08:09;;;;;;;;;;;;;;;31.35;35.13;97275.41;109946;1247;69462;-74
2022/06/30 07:10:38;;;;;;;6.50;5.90;;;;;;;31.32;35.69;97277.80;109935;1249;59654;-70
2022/06/30 07:13:08;;;;;;;5.50;5.00;;;;;;;31.53;35.40;97278.22;110006;1249;60133;-68
2022/06/30 07:15:37;;;;;;;5.70;5.10;;;;;;;31.71;35.37;97278.30;110155;1247;72232;-70
2022/06/30 07:18:06;;;;;;;5.90;5.30;;;;;;;32.08;34.28;97274.20;109921;1250;68634;-70
2022/06/30 07:20:35;;;;;;;5.70;4.50;;;;;;;32.29;33.70;97272.38;109975;1248;70048;-69
2022/06/30 07:23:04;;;;;;;6.20;5.70;;;;;;;32.47;32.98;97275.20;110150;1247;59699;-72
2022/06/30 07:25:53;;;;;;;6.20;5.60;;;;;;;32.33;32.49;97278.62;110155;1246;59689;-71
2022/06/30 07:28:21;;;;;;;6.40;5.30;;;;;;;32.38;32.95;97280.45;109510;1249;531928;-74
2022/06/30 07:31:12;;;;;;;4.80;4.40;;;;;;;32.98;32.58;97278.95;109942;1247;67630;-68
2022/06/30 07:33:44;;;;;;;6.70;6.00;;;;;;;33.34;32.14;97275.55;110054;1248;69765;-68
2022/06/30 07:36:13;;;;;;;5.30;4.70;;;;;;;33.57;30.84;97279.13;110007;1249;59734;-73
2022/06/30 07:38:44;;;;;;;5.70;5.00;;;;;;;33.89;31.06;97284.17;110172;1247;59764;-72
2022/06/30 07:41:14;;;;;;;5.40;4.90;;;;;;;34.28;29.91;97279.80;110207;1247;71647;-73
2022/06/30 07:43:43;;;;;;;5.10;4.60;;;;;;;34.62;29.70;97280.16;109984;1249;66954;-74
2022/06/30 07:46:14;;;;;;;5.80;5.00;;;;;;;34.97;28.37;97277.73;110117;1247;69143;-74
2022/06/30 07:48:44;;;;;;;6.10;4.70;;;;;;;35.09;28.17;97273.98;110170;1247;59687;-66
2022/06/30 07:51:15;;;;;;;4.90;4.50;;;;;;;35.30;26.21;97269.02;109892;1250;59713;-67
2022/06/30 07:53:44;;;;;;;4.70;4.30;;;;;;;35.61;26.45;97271.04;110156;1247;70994;-66
2022/06/30 07:56:15;;;;;;;5.70;4.30;;;;;;;35.69;26.15;97265.41;110172;1247;69208;-70
2022/06/30 07:58:44;;;;;;;5.50;4.20;;;;;;;35.48;25.97;97259.22;110168;1247;69771;-67
2022/06/30 08:01:12;;;;;;;5.10;4.40;;;;;;;35.80;25.19;97263.33;110145;1247;59694;-72
2022/06/30 08:03:43;;;;;;;5.30;4.80;;;;;;;35.81;24.93;97262.34;110173;1247;59673;-76
2022/06/30 08:06:13;;;;;;;5.80;5.30;;;;;;;35.62;25.52;97262.23;110146;1248;71802;-68
2022/06/30 08:08:42;;;;;;;6.20;5.60;;;;;;;35.43;25.95;97256.34;109969;1247;67688;-73
2022/06/30 08:11:11;;;;;;;5.40;4.90;;;;;;;35.45;26.44;97256.73;110152;1247;69519;-68
2022/06/30 08:13:40;;;;;;;5.10;4.70;;;;;;;35.71;26.23;97259.34;110121;1247;59689;-69
2022/06/30 08:16:13;;;;;;;5.90;5.40;;;;;;;36.04;25.63;97255.25;110155;1247;59691;-76
2022/06/30 08:18:42;;;;;;;6.80;5.10;;;;;;;36.23;25.87;97253.81;110301;1247;71738;-73
2022/06/30 08:21:11;;;;;;;5.30;4.90;;;;;;;36.08;25.40;97253.23;110171;1247;67982;-71
2022/06/30 08:23:40;;;;;;;5.20;4.70;;;;;;;35.30;26.29;97254.89;110204;1247;69458;-73
2022/06/30 08:26:09;;;;;;;5.60;5.10;;;;;;;35.41;26.42;97250.36;110205;1247;59748;-72
2022/06/30 08:28:38;;;;;;;6.10;5.50;;;;;;;35.82;25.86;97254.34;109896;1247;59651;-73
2022/06/30 08:31:12;;;;;;;6.10;5.60;;;;;;;35.43;26.19;97251.82;110150;1247;71174;-72
2022/06/30 08:33:41;;;;;;;6.30;5.80;;;;;;;35.51;26.46;97250.95;110205;1247;68989;-71
2022/06/30 08:36:10;;;;;;;6.90;5.60;;;;;;;35.85;26.01;97251.02;110191;1247;68712;-72
2022/06/30 08:38:40;;;;;;;5.40;4.90;;;;;;;36.01;25.74;97251.73;110212;1247;59688;-73
2022/06/30 08:44:01;;;;;;;5.70;5.20;;;;;;;36.27;25.43;97246.17;110073;1247;69722;-70
2022/06/30 08:46:33;;;;;;;6.10;4.70;;;;;;;36.20;24.88;97245.65;110038;1248;69240;-72
2022/06/30 08:49:02;;;;;;;5.80;5.30;;;;;;;36.93;25.03;97243.08;110168;1247;68695;-69
2022/06/30 08:51:34;;;;;;;5.30;4.80;;;;;;;37.15;24.29;97241.70;110179;1247;59723;-71
2022/06/30 08:54:06;;;;;;;5.30;4.80;;;;;;;37.08;24.00;97241.98;109843;1248;59631;-69
2022/06/30 08:56:36;;;;;;;6.10;5.30;;;;;;;37.17;24.48;97235.84;110131;1247;71411;-70
2022/06/30 08:59:05;;;;;;;6.60;5.40;;;;;;;37.04;25.05;97230.50;110170;1247;68602;-68
2022/06/30 09:01:34;;;;;;;6.50;5.90;;;;;;;37.29;23.83;97232.52;110135;1247;69401;-69
2022/06/30 09:04:07;;;;;;;6.70;6.20;;;;;;;36.88;23.12;97233.69;110150;1247;59686;-74
2022/06/30 09:06:36;;;;;;;6.80;6.20;;;;;;;36.29;24.45;97231.91;110030;1247;59704;-72
2022/06/30 09:09:05;;;;;;;6.40;5.80;;;;;;;36.15;24.79;97232.75;109940;1247;72059;-72
2022/06/30 09:11:51;;;;;;;6.10;5.40;;;;;;;36.28;24.98;97229.25;109974;1247;68172;-68
2022/06/30 09:14:34;;;;;;;5.60;5.10;;;;;;;36.52;23.92;97225.08;110170;1247;68672;-71
2022/06/30 09:17:06;;;;;;;6.30;5.30;;;;;;;36.81;23.90;97223.45;110122;1248;59761;-72
2022/06/30 09:19:40;;;;;;;6.40;5.80;;;;;;;36.88;24.12;97226.61;110208;1247;59728;-70
2022/06/30 09:22:14;;;;;;;5.30;4.90;;;;;;;37.10;23.57;97224.08;110187;1247;71164;-73
2022/06/30 09:24:43;;;;;;;6.00;5.50;;;;;;;36.54;23.41;97221.41;109951;1247;68741;-73
2022/06/30 09:27:21;;;;;;;5.90;5.40;;;;;;;36.31;23.25;97222.05;110097;1250;69469;-74
2022/06/30 09:29:53;;;;;;;6.40;5.90;;;;;;;36.38;22.99;97220.75;109932;1247;59732;-71
2022/06/30 09:32:44;;;;;;;6.30;5.70;;;;;;;36.28;22.77;97214.66;110206;1247;59643;-71
2022/06/30 09:35:14;;;;;;;6.30;5.80;;;;;;;36.26;23.06;97215.92;110215;1247;70830;-72
2022/06/30 09:37:45;;;;;;;5.80;5.10;;;;;;;36.92;23.73;97209.97;110249;1247;68429;-69
2022/06/30 09:40:14;;;;;;;5.00;4.60;;;;;;;37.44;23.38;97212.63;110140;1247;69596;-76
2022/06/30 09:42:46;;;;;;;5.90;5.40;;;;;;;37.92;22.62;97208.81;110168;1247;60099;-74
2022/06/30 09:45:53;;;;;;;6.00;5.50;;;;;;;37.86;22.24;97204.55;110191;1247;59729;-72
2022/06/30 09:48:27;;;;;;;7.00;6.20;;;;;;;37.75;22.27;97201.56;109446;1256;71694;-72
2022/06/30 09:50:57;;;;;;;5.50;5.10;;;;;;;37.14;22.87;97193.49;109504;1256;67818;-74
2022/06/30 09:53:27;;;;;;;5.80;5.30;;;;;;;36.88;22.54;97192.41;109369;1256;70210;-74
2022/06/30 09:56:08;;;;;;;6.10;5.60;;;;;;;36.90;22.46;97191.95;109376;1256;59694;-74
2022/06/30 09:58:42;;;;;;;6.30;5.70;;;;;;;36.91;22.04;97189.84;109380;1256;59759;-74
2022/06/30 10:01:11;;;;;;;6.70;5.60;;;;;;;37.18;21.89;97185.77;109394;1256;70877;-70
2022/06/30 10:03:45;;;;;;;6.00;5.50;;;;;;;37.02;22.24;97186.29;109476;1256;68537;-72
2022/06/30 10:06:16;;;;;;;6.50;5.70;;;;;;;36.34;22.08;97184.41;109359;1256;68794;-71
2022/06/30 10:08:47;;;;;;;5.70;5.30;;;;;;;36.61;22.54;97173.46;109385;1256;59777;-70
2022/06/30 10:11:16;;;;;;;6.50;5.90;;;;;;;36.86;23.50;97167.59;109402;1256;59701;-72
2022/06/30 10:13:47;;;;;;;5.60;5.00;;;;;;;36.47;22.95;97168.25;109375;1256;70878;-72
2022/06/30 10:16:17;;;;;;;6.00;5.50;;;;;;;36.20;23.49;97160.23;109420;1256;68710;-71
2022/06/30 10:18:46;;;;;;;6.50;6.00;;;;;;;36.35;24.05;97152.79;109204;1257;69535;-72
2022/06/30 10:21:17;;;;;;;5.30;4.80;;;;;;;36.50;23.61;97143.34;109268;1258;59752;-73
2022/06/30 10:23:46;;;;;;;5.70;5.20;;;;;;;36.83;24.35;97138.09;109397;1256;59770;-72
2022/06/30 10:29:05;;;;;;;5.90;5.40;;;;;;;37.31;23.46;97140.61;110180;1247;67757;-73
2022/06/30 10:31:48;;;;;;;6.10;5.60;;;;;;;37.51;22.63;97145.09;110181;1247;69422;-71
2022/06/30 10:34:25;;;;;;;6.70;6.10;;;;;;;37.34;21.97;97145.92;110001;1247;59776;-71
2022/06/30 10:36:59;;;;;;;5.50;5.00;;;;;;;37.21;22.15;97148.73;110161;1247;59629;-72
2022/06/30 10:39:50;;;;;;;6.40;5.80;;;;;;;37.20;22.38;97154.40;110144;1247;71511;-70
2022/06/30 10:42:58;;;;;;;5.70;5.20;;;;;;;37.13;23.01;97142.44;110153;1247;67828;-69
2022/06/30 10:45:27;;;;;;;7.70;6.10;;;;;;;37.39;21.95;97132.52;109617;1253;70021;-70
2022/06/30 10:47:56;;;;;;;5.80;5.30;;;;;;;37.46;21.66;97127.55;109648;1253;59887;-69
2022/06/30 10:50:37;;;;;;;6.10;5.40;;;;;;;37.50;21.53;97129.61;109669;1253;59706;-68
2022/06/30 10:53:09;;;;;;;6.00;5.50;;;;;;;37.49;21.72;97130.71;109636;1253;71159;-69
2022/06/30 10:55:50;;;;;;;5.70;5.20;;;;;;;37.46;22.15;97125.13;109607;1253;67841;-67
2022/06/30 10:58:22;;;;;;;6.20;5.60;;;;;;;37.42;22.09;97130.02;109648;1253;68650;-68
2022/06/30 11:01:05;;;;;;;5.60;5.10;;;;;;;37.24;23.00;97138.17;109586;1254;59750;-67
2022/06/30 11:03:37;;;;;;;5.90;5.40;;;;;;;37.09;22.71;97138.52;109665;1253;59719;-71
2022/06/30 11:06:10;;;;;;;6.40;5.90;;;;;;;37.02;22.71;97138.14;109685;1253;70800;-69
2022/06/30 11:08:39;;;;;;;5.20;4.80;;;;;;;36.80;22.86;97128.48;109617;1253;67605;-70
2022/06/30 11:11:20;;;;;;;5.20;4.70;;;;;;;36.59;23.37;97130.30;109641;1253;69413;-71
2022/06/30 11:14:01;;;;;;;4.70;4.30;;;;;;;36.49;23.19;97135.52;109590;1253;59703;-68
2022/06/30 11:16:31;;;;;;;5.70;5.00;;;;;;;36.30;23.70;97137.36;109495;1253;59773;-71
2022/06/30 11:19:04;;;;;;;6.00;5.40;;;;;;;36.07;24.38;97136.27;109673;1253;72178;-71
2022/06/30 11:21:33;;;;;;;5.30;4.90;;;;;;;36.02;25.15;97138.33;109794;1250;68717;-67
2022/06/30 11:24:02;;;;;;;6.50;5.90;;;;;;;35.85;25.79;97139.42;110149;1247;68616;-70
2022/06/30 11:29:28;;;;;;;5.50;5.00;;;;;;;35.60;25.66;97141.35;110054;1247;59705;-69
2022/06/30 11:31:59;;;;;;;7.00;4.90;;;;;;;35.44;25.95;97139.71;109984;1248;71478;-68
2022/06/30 11:34:28;;;;;;;5.10;4.60;;;;;;;35.34;26.16;97131.55;110209;1247;68703;-69
2022/06/30 11:36:57;;;;;;;5.40;4.90;;;;;;;35.16;26.02;97128.71;110110;1250;70249;-72
2022/06/30 11:39:28;;;;;;;5.70;5.20;;;;;;;35.00;26.55;97125.49;110174;1247;59763;-69
2022/06/30 11:42:06;;;;;;;5.80;4.70;;;;;;;34.82;27.08;97123.27;110005;1250;59763;-72
2022/06/30 11:44:38;;;;;;;6.00;5.50;;;;;;;34.67;27.37;97119.06;110160;1247;71687;-68
2022/06/30 11:47:16;;;;;;;5.20;4.80;;;;;;;34.60;28.02;97113.36;110134;1247;68609;-69
2022/06/30 11:49:50;;;;;;;6.10;5.50;;;;;;;34.64;28.21;97108.71;110143;1249;68668;-72
2022/06/30 11:52:28;;;;;;;5.90;5.40;;;;;;;34.76;28.08;97108.30;109869;1247;59715;-69
2022/06/30 11:54:59;;;;;;;5.30;4.80;;;;;;;34.74;27.61;97107.34;110158;1248;59713;-72
2022/06/30 11:57:32;;;;;;;6.50;5.20;;;;;;;34.77;27.12;97110.09;110148;1247;70893;-68
2022/06/30 12:00:21;;;;;;;5.60;5.10;;;;;;;34.84;27.35;97110.08;110154;1247;68548;-71
2022/06/30 12:02:52;;;;;;;5.90;5.30;;;;;;;34.83;27.33;97108.95;110112;1248;69391;-71
2022/06/30 12:05:23;;;;;;;6.00;5.50;;;;;;;34.77;27.81;97112.97;110011;1250;59808;-71
2022/06/30 12:07:52;;;;;;;5.50;4.80;;;;;;;34.79;27.95;97115.14;110194;1247;59633;-65